Pacific Dawn — 2AGH7 — position and weather

sailwx.info

Track history (hours):
 
Tides and Currents Weather Stations Pressure Air Temp Water Temp Dewpoint Dewpoint Depression Visibility Wind Speed Wind Dir Waves Ship Positions

Pacific Dawn

Last reported at 2017-Mar-23 10:22 UTC. Time now 2017-Mar-24 20:06 UTC.
Position S 22°38' E 166°04'.

Length 245 m; draft 8.3 m.

Type: Passenger vessel. MMSI: 235059368.

Date/timePositionNaut miles runAvg speedWind from/ knotsBaromVisibWave heightAir tempDewpointWater temp
2017-Mar-23 10:22S 22°38' E 166°04'1619.8
2017-Mar-23 09:33S 22°33' E 166°20'1515.3
2017-Mar-23 08:33S 22°27' E 166°35'  
2017-Mar-19 10:33S 22°23' E 166°41'1616.0
2017-Mar-19 09:33S 22°18' E 166°25'1 1.0
2017-Mar-19 08:34S 22°17' E 166°24'1212.1
2017-Mar-19 07:34S 22°23' E 166°36'1111.1
2017-Mar-19 06:34S 22°16' E 166°26'0 0.2
2017-Mar-19 05:31S 22°16' E 166°26'0 0.0
2017-Mar-19 04:31S 22°16' E 166°26'0 0.0
2017-Mar-19 03:31S 22°16' E 166°26'0 0.0
2017-Mar-19 02:31S 22°16' E 166°26'0 0.0
2017-Mar-19 01:31S 22°16' E 166°26'0 0.0
2017-Mar-19 00:31S 22°16' E 166°26'0 0.0
2017-Mar-18 23:31S 22°16' E 166°26'0 0.0
2017-Mar-18 22:28S 22°16' E 166°26'0 0.0
2017-Mar-18 21:31S 22°16' E 166°26'0 0.1
2017-Mar-18 20:34S 22°16' E 166°26'1212.1
2017-Mar-18 19:34S 22°22' E 166°15'  
2017-Mar-16 09:24S 26°39' E 153°23'1112.6
2017-Mar-16 08:34S 26°42' E 153°12'1413.6
2017-Mar-16 07:33S 26°56' E 153°12'1717.1
2017-Mar-16 06:34S 27°11' E 153°21'1515.2
2017-Mar-16 05:34S 27°22' E 153°10'6 6.5
2017-Mar-16 04:34S 27°27' E 153°04'0 0.3
2017-Mar-16 03:25S 27°26' E 153°04'0 0.0
2017-Mar-16 02:31S 27°26' E 153°04'0 0.0
2017-Mar-16 01:31S 27°26' E 153°04'0 0.0
2017-Mar-16 00:31S 27°26' E 153°04'0 0.0
2017-Mar-15 23:31S 27°26' E 153°04'0 0.0
2017-Mar-15 22:31S 27°26' E 153°04'0 0.0
2017-Mar-15 21:31S 27°26' E 153°04'0 0.0
2017-Mar-15 20:25S 27°26' E 153°04'0 0.3
2017-Mar-15 19:34S 27°27' E 153°04'6 5.7
2017-Mar-15 18:34S 27°23' E 153°09'1313.0
2017-Mar-15 17:33S 27°14' E 153°20'1514.8
2017-Mar-15 16:33S 27°00' E 153°14'1714.3
2017-Mar-15 15:20S 26°43' E 153°11'  
Track history (hours):
 
Tides and Currents Weather Stations Pressure Air Temp Water Temp Dewpoint Dewpoint Depression Visibility Wind Speed Wind Dir Waves Ship Positions

Pacific Dawn

Last reported at 2017-Mar-23 10:22 UTC. Time now 2017-Mar-24 20:06 UTC.
Position S 22°38' E 166°04'.

Length 245 m; draft 8.3 m.

Type: Passenger vessel. MMSI: 235059368.

Date/timePositionNaut miles runAvg speedWind from/ knotsBaromVisibWave heightAir tempDewpointWater temp
2017-Mar-23 10:22S 22°38' E 166°04'1619.8
2017-Mar-23 09:33S 22°33' E 166°20'1515.3
2017-Mar-23 08:33S 22°27' E 166°35'  
2017-Mar-19 10:33S 22°23' E 166°41'1616.0
2017-Mar-19 09:33S 22°18' E 166°25'1 1.0
2017-Mar-19 08:34S 22°17' E 166°24'1212.1
2017-Mar-19 07:34S 22°23' E 166°36'1111.1
2017-Mar-19 06:34S 22°16' E 166°26'0 0.2
2017-Mar-19 05:31S 22°16' E 166°26'0 0.0
2017-Mar-19 04:31S 22°16' E 166°26'0 0.0
2017-Mar-19 03:31S 22°16' E 166°26'0 0.0
2017-Mar-19 02:31S 22°16' E 166°26'0 0.0
2017-Mar-19 01:31S 22°16' E 166°26'0 0.0
2017-Mar-19 00:31S 22°16' E 166°26'0 0.0
2017-Mar-18 23:31S 22°16' E 166°26'0 0.0
2017-Mar-18 22:28S 22°16' E 166°26'0 0.0
2017-Mar-18 21:31S 22°16' E 166°26'0 0.1
2017-Mar-18 20:34S 22°16' E 166°26'1212.1
2017-Mar-18 19:34S 22°22' E 166°15'  
2017-Mar-16 09:24S 26°39' E 153°23'1112.6
2017-Mar-16 08:34S 26°42' E 153°12'1413.6
2017-Mar-16 07:33S 26°56' E 153°12'1717.1
2017-Mar-16 06:34S 27°11' E 153°21'1515.2
2017-Mar-16 05:34S 27°22' E 153°10'6 6.5
2017-Mar-16 04:34S 27°27' E 153°04'0 0.3
2017-Mar-16 03:25S 27°26' E 153°04'0 0.0
2017-Mar-16 02:31S 27°26' E 153°04'0 0.0
2017-Mar-16 01:31S 27°26' E 153°04'0 0.0
2017-Mar-16 00:31S 27°26' E 153°04'0 0.0
2017-Mar-15 23:31S 27°26' E 153°04'0 0.0
2017-Mar-15 22:31S 27°26' E 153°04'0 0.0
2017-Mar-15 21:31S 27°26' E 153°04'0 0.0
2017-Mar-15 20:25S 27°26' E 153°04'0 0.3
2017-Mar-15 19:34S 27°27' E 153°04'6 5.7
2017-Mar-15 18:34S 27°23' E 153°09'1313.0
2017-Mar-15 17:33S 27°14' E 153°20'1514.8
2017-Mar-15 16:33S 27°00' E 153°14'1714.3
2017-Mar-15 15:20S 26°43' E 153°11'  

Dump ship's entire track history